sensor_id;sensor_type;location;lat;lon;timestamp;P1;durP1;ratioP1;P2;durP2;ratioP2
17696;SDS011;8967;47.984;7.842;2023-07-29T00:02:25;3.83;;;1.23;;
17696;SDS011;8967;47.984;7.842;2023-07-29T00:04:56;2.47;;;1.10;;
17696;SDS011;8967;47.984;7.842;2023-07-29T00:07:23;1.55;;;1.10;;
17696;SDS011;8967;47.984;7.842;2023-07-29T00:09:49;3.85;;;1.70;;
17696;SDS011;8967;47.984;7.842;2023-07-29T00:12:18;3.55;;;1.48;;
17696;SDS011;8967;47.984;7.842;2023-07-29T00:14:45;4.60;;;2.17;;
17696;SDS011;8967;47.984;7.842;2023-07-29T00:17:12;5.78;;;2.28;;
17696;SDS011;8967;47.984;7.842;2023-07-29T00:19:39;3.65;;;2.17;;
17696;SDS011;8967;47.984;7.842;2023-07-29T00:22:09;3.20;;;1.85;;
17696;SDS011;8967;47.984;7.842;2023-07-29T00:24:36;4.13;;;1.85;;
17696;SDS011;8967;47.984;7.842;2023-07-29T00:27:03;2.63;;;1.58;;
17696;SDS011;8967;47.984;7.842;2023-07-29T00:29:33;3.42;;;1.48;;
17696;SDS011;8967;47.984;7.842;2023-07-29T00:32:02;2.63;;;1.30;;
17696;SDS011;8967;47.984;7.842;2023-07-29T00:34:32;2.55;;;1.20;;
17696;SDS011;8967;47.984;7.842;2023-07-29T00:36:59;2.00;;;1.40;;
17696;SDS011;8967;47.984;7.842;2023-07-29T00:39:27;4.82;;;1.60;;
17696;SDS011;8967;47.984;7.842;2023-07-29T00:41:54;3.42;;;1.25;;
17696;SDS011;8967;47.984;7.842;2023-07-29T00:44:21;9.45;;;1.75;;
17696;SDS011;8967;47.984;7.842;2023-07-29T00:46:48;6.00;;;1.48;;
17696;SDS011;8967;47.984;7.842;2023-07-29T00:49:19;3.60;;;1.30;;
17696;SDS011;8967;47.984;7.842;2023-07-29T00:51:46;2.33;;;1.50;;
17696;SDS011;8967;47.984;7.842;2023-07-29T00:54:13;6.53;;;1.85;;
17696;SDS011;8967;47.984;7.842;2023-07-29T00:56:42;3.40;;;1.20;;
17696;SDS011;8967;47.984;7.842;2023-07-29T00:59:09;3.08;;;1.80;;
17696;SDS011;8967;47.984;7.842;2023-07-29T01:01:36;4.63;;;1.70;;
17696;SDS011;8967;47.984;7.842;2023-07-29T01:04:02;1.70;;;1.30;;
17696;SDS011;8967;47.984;7.842;2023-07-29T01:06:33;8.00;;;1.40;;
17696;SDS011;8967;47.984;7.842;2023-07-29T01:09:12;2.30;;;1.70;;
17696;SDS011;8967;47.984;7.842;2023-07-29T01:11:47;2.42;;;1.55;;
17696;SDS011;8967;47.984;7.842;2023-07-29T01:14:21;3.00;;;1.67;;
17696;SDS011;8967;47.984;7.842;2023-07-29T01:16:57;3.15;;;1.17;;
17696;SDS011;8967;47.984;7.842;2023-07-29T01:19:34;1.52;;;1.05;;
17696;SDS011;8967;47.984;7.842;2023-07-29T01:22:14;3.72;;;1.20;;
17696;SDS011;8967;47.984;7.842;2023-07-29T01:24:47;1.17;;;1.08;;
17696;SDS011;8967;47.984;7.842;2023-07-29T01:27:14;2.08;;;1.30;;
17696;SDS011;8967;47.984;7.842;2023-07-29T01:29:41;3.20;;;1.40;;
17696;SDS011;8967;47.984;7.842;2023-07-29T01:32:19;2.08;;;1.30;;
17696;SDS011;8967;47.984;7.842;2023-07-29T01:34:56;5.20;;;1.10;;
17696;SDS011;8967;47.984;7.842;2023-07-29T01:37:26;3.30;;;1.13;;
17696;SDS011;8967;47.984;7.842;2023-07-29T01:40:00;1.38;;;1.27;;
17696;SDS011;8967;47.984;7.842;2023-07-29T01:42:29;1.90;;;1.00;;
17696;SDS011;8967;47.984;7.842;2023-07-29T01:44:57;1.10;;;1.00;;
17696;SDS011;8967;47.984;7.842;2023-07-29T01:47:24;3.08;;;1.23;;
17696;SDS011;8967;47.984;7.842;2023-07-29T01:49:54;2.65;;;1.10;;
17696;SDS011;8967;47.984;7.842;2023-07-29T01:52:23;1.30;;;1.20;;
17696;SDS011;8967;47.984;7.842;2023-07-29T01:54:50;3.67;;;1.13;;
17696;SDS011;8967;47.984;7.842;2023-07-29T01:57:18;3.33;;;1.10;;
17696;SDS011;8967;47.984;7.842;2023-07-29T01:59:45;1.25;;;1.15;;
17696;SDS011;8967;47.984;7.842;2023-07-29T02:02:13;1.30;;;1.20;;
17696;SDS011;8967;47.984;7.842;2023-07-29T02:04:39;1.98;;;1.00;;
17696;SDS011;8967;47.984;7.842;2023-07-29T02:07:06;2.10;;;1.10;;
17696;SDS011;8967;47.984;7.842;2023-07-29T02:09:36;1.73;;;1.35;;
17696;SDS011;8967;47.984;7.842;2023-07-29T02:12:03;1.30;;;1.10;;
17696;SDS011;8967;47.984;7.842;2023-07-29T02:14:37;2.10;;;1.00;;
17696;SDS011;8967;47.984;7.842;2023-07-29T02:17:04;2.65;;;1.00;;
17696;SDS011;8967;47.984;7.842;2023-07-29T02:19:33;1.25;;;1.13;;
17696;SDS011;8967;47.984;7.842;2023-07-29T02:22:03;1.05;;;0.90;;
17696;SDS011;8967;47.984;7.842;2023-07-29T02:24:30;2.60;;;0.82;;
17696;SDS011;8967;47.984;7.842;2023-07-29T02:26:59;3.17;;;1.00;;
17696;SDS011;8967;47.984;7.842;2023-07-29T02:29:26;4.13;;;0.90;;
17696;SDS011;8967;47.984;7.842;2023-07-29T02:31:54;1.85;;;1.27;;
17696;SDS011;8967;47.984;7.842;2023-07-29T02:34:21;3.22;;;1.30;;
17696;SDS011;8967;47.984;7.842;2023-07-29T02:36:48;5.70;;;1.15;;
17696;SDS011;8967;47.984;7.842;2023-07-29T02:39:15;1.23;;;0.82;;
17696;SDS011;8967;47.984;7.842;2023-07-29T02:41:44;2.97;;;1.00;;
17696;SDS011;8967;47.984;7.842;2023-07-29T02:44:11;3.13;;;1.02;;
17696;SDS011;8967;47.984;7.842;2023-07-29T02:46:38;2.28;;;1.20;;
17696;SDS011;8967;47.984;7.842;2023-07-29T02:49:06;1.08;;;0.98;;
17696;SDS011;8967;47.984;7.842;2023-07-29T02:51:33;0.90;;;0.90;;
17696;SDS011;8967;47.984;7.842;2023-07-29T02:54:00;5.40;;;1.20;;
17696;SDS011;8967;47.984;7.842;2023-07-29T02:56:27;2.60;;;0.90;;
17696;SDS011;8967;47.984;7.842;2023-07-29T02:58:55;3.58;;;0.98;;
17696;SDS011;8967;47.984;7.842;2023-07-29T03:01:22;1.38;;;1.20;;
17696;SDS011;8967;47.984;7.842;2023-07-29T03:03:50;2.00;;;1.10;;
17696;SDS011;8967;47.984;7.842;2023-07-29T03:06:18;3.95;;;1.17;;
17696;SDS011;8967;47.984;7.842;2023-07-29T03:08:45;1.20;;;1.10;;
17696;SDS011;8967;47.984;7.842;2023-07-29T03:11:13;2.33;;;1.30;;
17696;SDS011;8967;47.984;7.842;2023-07-29T03:13:43;1.10;;;0.88;;
17696;SDS011;8967;47.984;7.842;2023-07-29T03:16:11;3.47;;;1.25;;
17696;SDS011;8967;47.984;7.842;2023-07-29T03:18:44;3.65;;;1.40;;
17696;SDS011;8967;47.984;7.842;2023-07-29T03:21:11;1.52;;;1.00;;
17696;SDS011;8967;47.984;7.842;2023-07-29T03:23:42;2.60;;;0.98;;
17696;SDS011;8967;47.984;7.842;2023-07-29T03:26:09;1.20;;;1.10;;
17696;SDS011;8967;47.984;7.842;2023-07-29T03:28:36;1.75;;;1.15;;
17696;SDS011;8967;47.984;7.842;2023-07-29T03:31:06;0.93;;;0.93;;
17696;SDS011;8967;47.984;7.842;2023-07-29T03:33:33;5.35;;;1.40;;
17696;SDS011;8967;47.984;7.842;2023-07-29T03:36:00;6.00;;;1.15;;
17696;SDS011;8967;47.984;7.842;2023-07-29T03:38:28;1.95;;;1.20;;
17696;SDS011;8967;47.984;7.842;2023-07-29T03:40:56;3.75;;;1.00;;
17696;SDS011;8967;47.984;7.842;2023-07-29T03:43:23;3.42;;;1.27;;
17696;SDS011;8967;47.984;7.842;2023-07-29T03:45:54;1.75;;;1.20;;
17696;SDS011;8967;47.984;7.842;2023-07-29T03:48:24;1.05;;;1.05;;
17696;SDS011;8967;47.984;7.842;2023-07-29T03:50:53;3.00;;;1.17;;
17696;SDS011;8967;47.984;7.842;2023-07-29T03:53:20;1.45;;;1.13;;
17696;SDS011;8967;47.984;7.842;2023-07-29T03:55:47;1.83;;;1.38;;
17696;SDS011;8967;47.984;7.842;2023-07-29T03:58:16;3.63;;;1.08;;
17696;SDS011;8967;47.984;7.842;2023-07-29T04:00:43;2.75;;;1.00;;
17696;SDS011;8967;47.984;7.842;2023-07-29T04:03:10;1.50;;;1.30;;
17696;SDS011;8967;47.984;7.842;2023-07-29T04:05:37;4.88;;;1.20;;
17696;SDS011;8967;47.984;7.842;2023-07-29T04:08:04;1.08;;;0.98;;
17696;SDS011;8967;47.984;7.842;2023-07-29T04:10:31;2.35;;;1.20;;
17696;SDS011;8967;47.984;7.842;2023-07-29T04:13:00;1.52;;;1.23;;
17696;SDS011;8967;47.984;7.842;2023-07-29T04:15:30;1.23;;;1.05;;
17696;SDS011;8967;47.984;7.842;2023-07-29T04:18:00;2.22;;;1.00;;
17696;SDS011;8967;47.984;7.842;2023-07-29T04:20:27;3.97;;;1.08;;
17696;SDS011;8967;47.984;7.842;2023-07-29T04:22:56;1.20;;;1.10;;
17696;SDS011;8967;47.984;7.842;2023-07-29T04:25:22;2.50;;;1.15;;
17696;SDS011;8967;47.984;7.842;2023-07-29T04:27:49;3.90;;;1.38;;
17696;SDS011;8967;47.984;7.842;2023-07-29T04:30:16;1.38;;;1.27;;
17696;SDS011;8967;47.984;7.842;2023-07-29T04:32:44;5.45;;;1.25;;
17696;SDS011;8967;47.984;7.842;2023-07-29T04:35:13;1.00;;;1.00;;
17696;SDS011;8967;47.984;7.842;2023-07-29T04:37:40;2.63;;;1.30;;
17696;SDS011;8967;47.984;7.842;2023-07-29T04:40:07;4.38;;;1.17;;
17696;SDS011;8967;47.984;7.842;2023-07-29T04:42:36;6.95;;;1.40;;
17696;SDS011;8967;47.984;7.842;2023-07-29T04:45:03;1.83;;;1.38;;
17696;SDS011;8967;47.984;7.842;2023-07-29T04:47:32;1.55;;;1.40;;
17696;SDS011;8967;47.984;7.842;2023-07-29T04:50:00;1.70;;;1.55;;
17696;SDS011;8967;47.984;7.842;2023-07-29T04:52:27;2.80;;;1.30;;
17696;SDS011;8967;47.984;7.842;2023-07-29T04:54:56;1.35;;;1.25;;
17696;SDS011;8967;47.984;7.842;2023-07-29T04:57:25;2.38;;;1.23;;
17696;SDS011;8967;47.984;7.842;2023-07-29T04:59:54;1.30;;;1.20;;
17696;SDS011;8967;47.984;7.842;2023-07-29T05:02:21;5.78;;;1.55;;
17696;SDS011;8967;47.984;7.842;2023-07-29T05:04:48;4.15;;;1.35;;
17696;SDS011;8967;47.984;7.842;2023-07-29T05:07:16;1.75;;;1.20;;
17696;SDS011;8967;47.984;7.842;2023-07-29T05:09:43;4.00;;;1.52;;
17696;SDS011;8967;47.984;7.842;2023-07-29T05:12:10;1.50;;;1.40;;
17696;SDS011;8967;47.984;7.842;2023-07-29T05:14:37;1.95;;;1.35;;
17696;SDS011;8967;47.984;7.842;2023-07-29T05:17:04;1.40;;;1.27;;
17696;SDS011;8967;47.984;7.842;2023-07-29T05:19:34;1.85;;;1.50;;
17696;SDS011;8967;47.984;7.842;2023-07-29T05:22:00;3.95;;;1.70;;
17696;SDS011;8967;47.984;7.842;2023-07-29T05:24:29;1.40;;;1.30;;
17696;SDS011;8967;47.984;7.842;2023-07-29T05:26:55;2.35;;;1.60;;
17696;SDS011;8967;47.984;7.842;2023-07-29T05:29:22;3.17;;;1.67;;
17696;SDS011;8967;47.984;7.842;2023-07-29T05:31:49;4.90;;;1.45;;
17696;SDS011;8967;47.984;7.842;2023-07-29T05:34:17;1.60;;;1.50;;
17696;SDS011;8967;47.984;7.842;2023-07-29T05:36:44;2.33;;;1.38;;
17696;SDS011;8967;47.984;7.842;2023-07-29T05:39:11;1.70;;;1.60;;
17696;SDS011;8967;47.984;7.842;2023-07-29T05:41:39;1.92;;;1.70;;
17696;SDS011;8967;47.984;7.842;2023-07-29T05:44:06;2.45;;;1.67;;
17696;SDS011;8967;47.984;7.842;2023-07-29T05:46:33;2.55;;;1.65;;
17696;SDS011;8967;47.984;7.842;2023-07-29T05:49:00;1.75;;;1.65;;
17696;SDS011;8967;47.984;7.842;2023-07-29T05:51:27;2.40;;;1.90;;
17696;SDS011;8967;47.984;7.842;2023-07-29T05:53:54;1.55;;;1.45;;
17696;SDS011;8967;47.984;7.842;2023-07-29T05:56:21;2.40;;;1.75;;
17696;SDS011;8967;47.984;7.842;2023-07-29T05:58:52;1.80;;;1.70;;
17696;SDS011;8967;47.984;7.842;2023-07-29T06:01:19;2.30;;;1.50;;
17696;SDS011;8967;47.984;7.842;2023-07-29T06:03:46;1.73;;;1.63;;
17696;SDS011;8967;47.984;7.842;2023-07-29T06:06:13;2.50;;;1.90;;
17696;SDS011;8967;47.984;7.842;2023-07-29T06:08:40;3.50;;;2.05;;
17696;SDS011;8967;47.984;7.842;2023-07-29T06:11:07;1.75;;;1.63;;
17696;SDS011;8967;47.984;7.842;2023-07-29T06:13:34;1.60;;;1.50;;
17696;SDS011;8967;47.984;7.842;2023-07-29T06:16:02;1.88;;;1.48;;
17696;SDS011;8967;47.984;7.842;2023-07-29T06:18:29;4.68;;;1.98;;
17696;SDS011;8967;47.984;7.842;2023-07-29T06:20:57;1.70;;;1.60;;
17696;SDS011;8967;47.984;7.842;2023-07-29T06:23:24;3.30;;;1.50;;
17696;SDS011;8967;47.984;7.842;2023-07-29T06:25:51;1.70;;;1.45;;
17696;SDS011;8967;47.984;7.842;2023-07-29T06:28:20;1.90;;;1.80;;
17696;SDS011;8967;47.984;7.842;2023-07-29T06:30:46;1.65;;;1.55;;
17696;SDS011;8967;47.984;7.842;2023-07-29T06:33:15;2.95;;;1.58;;
17696;SDS011;8967;47.984;7.842;2023-07-29T06:35:42;1.70;;;1.55;;
17696;SDS011;8967;47.984;7.842;2023-07-29T06:38:09;1.77;;;1.30;;
17696;SDS011;8967;47.984;7.842;2023-07-29T06:40:35;2.30;;;2.00;;
17696;SDS011;8967;47.984;7.842;2023-07-29T06:43:02;4.30;;;1.90;;
17696;SDS011;8967;47.984;7.842;2023-07-29T06:45:29;8.70;;;2.42;;
17696;SDS011;8967;47.984;7.842;2023-07-29T06:47:56;6.88;;;2.53;;
17696;SDS011;8967;47.984;7.842;2023-07-29T06:50:24;3.05;;;2.05;;
17696;SDS011;8967;47.984;7.842;2023-07-29T06:52:51;3.35;;;1.70;;
17696;SDS011;8967;47.984;7.842;2023-07-29T06:55:20;2.80;;;1.67;;
17696;SDS011;8967;47.984;7.842;2023-07-29T06:57:47;3.65;;;1.65;;
17696;SDS011;8967;47.984;7.842;2023-07-29T07:00:14;2.50;;;1.70;;
17696;SDS011;8967;47.984;7.842;2023-07-29T07:02:41;2.30;;;2.05;;
17696;SDS011;8967;47.984;7.842;2023-07-29T07:05:08;2.25;;;2.05;;
17696;SDS011;8967;47.984;7.842;2023-07-29T07:07:37;2.42;;;2.10;;
17696;SDS011;8967;47.984;7.842;2023-07-29T07:10:04;1.75;;;1.65;;
17696;SDS011;8967;47.984;7.842;2023-07-29T07:12:32;2.42;;;1.95;;
17696;SDS011;8967;47.984;7.842;2023-07-29T07:14:59;2.33;;;1.60;;
17696;SDS011;8967;47.984;7.842;2023-07-29T07:17:26;1.80;;;1.65;;
17696;SDS011;8967;47.984;7.842;2023-07-29T07:19:55;1.80;;;1.70;;
17696;SDS011;8967;47.984;7.842;2023-07-29T07:22:22;4.07;;;1.90;;
17696;SDS011;8967;47.984;7.842;2023-07-29T07:24:51;2.50;;;2.20;;
17696;SDS011;8967;47.984;7.842;2023-07-29T07:27:18;3.38;;;1.70;;
17696;SDS011;8967;47.984;7.842;2023-07-29T07:29:45;2.08;;;1.92;;
17696;SDS011;8967;47.984;7.842;2023-07-29T07:32:12;3.67;;;2.30;;
17696;SDS011;8967;47.984;7.842;2023-07-29T07:34:39;4.53;;;1.83;;
17696;SDS011;8967;47.984;7.842;2023-07-29T07:37:06;2.25;;;1.80;;
17696;SDS011;8967;47.984;7.842;2023-07-29T07:39:32;4.28;;;2.08;;
17696;SDS011;8967;47.984;7.842;2023-07-29T07:42:01;1.98;;;1.77;;
17696;SDS011;8967;47.984;7.842;2023-07-29T07:44:28;1.73;;;1.63;;
17696;SDS011;8967;47.984;7.842;2023-07-29T07:46:55;1.98;;;1.83;;
17696;SDS011;8967;47.984;7.842;2023-07-29T07:49:22;2.05;;;1.75;;
17696;SDS011;8967;47.984;7.842;2023-07-29T07:51:49;1.95;;;1.83;;
17696;SDS011;8967;47.984;7.842;2023-07-29T07:54:16;3.15;;;1.88;;
17696;SDS011;8967;47.984;7.842;2023-07-29T07:56:43;1.90;;;1.80;;
17696;SDS011;8967;47.984;7.842;2023-07-29T07:59:11;2.22;;;1.80;;
17696;SDS011;8967;47.984;7.842;2023-07-29T08:01:38;2.15;;;2.00;;
17696;SDS011;8967;47.984;7.842;2023-07-29T08:04:05;3.83;;;2.08;;
17696;SDS011;8967;47.984;7.842;2023-07-29T08:06:32;2.78;;;2.10;;
17696;SDS011;8967;47.984;7.842;2023-07-29T08:09:00;2.13;;;1.90;;
17696;SDS011;8967;47.984;7.842;2023-07-29T08:11:27;3.10;;;1.88;;
17696;SDS011;8967;47.984;7.842;2023-07-29T08:13:54;1.67;;;1.58;;
17696;SDS011;8967;47.984;7.842;2023-07-29T08:16:22;2.92;;;2.10;;
17696;SDS011;8967;47.984;7.842;2023-07-29T08:18:49;2.80;;;2.10;;
17696;SDS011;8967;47.984;7.842;2023-07-29T08:21:16;2.10;;;1.92;;
17696;SDS011;8967;47.984;7.842;2023-07-29T08:23:43;1.67;;;1.58;;
17696;SDS011;8967;47.984;7.842;2023-07-29T08:26:10;2.17;;;2.05;;
17696;SDS011;8967;47.984;7.842;2023-07-29T08:28:37;4.70;;;1.90;;
17696;SDS011;8967;47.984;7.842;2023-07-29T08:31:05;5.60;;;4.00;;
17696;SDS011;8967;47.984;7.842;2023-07-29T08:33:34;2.55;;;2.35;;
17696;SDS011;8967;47.984;7.842;2023-07-29T08:36:01;2.08;;;1.90;;
17696;SDS011;8967;47.984;7.842;2023-07-29T08:38:30;4.72;;;2.25;;
17696;SDS011;8967;47.984;7.842;2023-07-29T08:40:58;2.33;;;2.15;;
17696;SDS011;8967;47.984;7.842;2023-07-29T08:43:31;3.40;;;2.30;;
17696;SDS011;8967;47.984;7.842;2023-07-29T08:45:59;3.35;;;2.22;;
17696;SDS011;8967;47.984;7.842;2023-07-29T08:48:29;3.58;;;1.75;;
17696;SDS011;8967;47.984;7.842;2023-07-29T08:51:02;3.55;;;2.00;;
17696;SDS011;8967;47.984;7.842;2023-07-29T08:53:30;1.90;;;1.70;;
17696;SDS011;8967;47.984;7.842;2023-07-29T08:55:57;2.92;;;2.00;;
17696;SDS011;8967;47.984;7.842;2023-07-29T08:58:27;2.80;;;2.10;;
17696;SDS011;8967;47.984;7.842;2023-07-29T09:00:54;2.35;;;2.13;;
17696;SDS011;8967;47.984;7.842;2023-07-29T09:03:22;3.95;;;2.08;;
17696;SDS011;8967;47.984;7.842;2023-07-29T09:05:49;3.55;;;2.15;;
17696;SDS011;8967;47.984;7.842;2023-07-29T09:08:21;2.72;;;2.28;;
17696;SDS011;8967;47.984;7.842;2023-07-29T09:10:51;2.40;;;2.08;;
17696;SDS011;8967;47.984;7.842;2023-07-29T09:13:18;3.42;;;1.95;;
17696;SDS011;8967;47.984;7.842;2023-07-29T09:15:45;3.83;;;2.20;;
17696;SDS011;8967;47.984;7.842;2023-07-29T09:18:15;2.40;;;2.20;;
17696;SDS011;8967;47.984;7.842;2023-07-29T09:20:45;2.50;;;2.15;;
17696;SDS011;8967;47.984;7.842;2023-07-29T09:23:14;2.90;;;2.40;;
17696;SDS011;8967;47.984;7.842;2023-07-29T09:25:42;2.50;;;1.92;;
17696;SDS011;8967;47.984;7.842;2023-07-29T09:28:09;3.40;;;2.25;;
17696;SDS011;8967;47.984;7.842;2023-07-29T09:30:37;2.70;;;2.50;;
17696;SDS011;8967;47.984;7.842;2023-07-29T09:33:04;7.30;;;2.42;;
17696;SDS011;8967;47.984;7.842;2023-07-29T09:35:32;2.70;;;2.00;;
17696;SDS011;8967;47.984;7.842;2023-07-29T09:38:01;2.83;;;2.30;;
17696;SDS011;8967;47.984;7.842;2023-07-29T09:40:28;3.33;;;2.40;;
17696;SDS011;8967;47.984;7.842;2023-07-29T09:43:05;2.25;;;2.05;;
17696;SDS011;8967;47.984;7.842;2023-07-29T09:45:33;2.53;;;2.30;;
17696;SDS011;8967;47.984;7.842;2023-07-29T09:48:01;2.38;;;2.17;;
17696;SDS011;8967;47.984;7.842;2023-07-29T09:50:30;4.32;;;3.25;;
17696;SDS011;8967;47.984;7.842;2023-07-29T09:52:57;4.15;;;2.50;;
17696;SDS011;8967;47.984;7.842;2023-07-29T09:55:24;4.28;;;2.63;;
17696;SDS011;8967;47.984;7.842;2023-07-29T09:57:53;2.95;;;2.30;;
17696;SDS011;8967;47.984;7.842;2023-07-29T10:00:23;4.15;;;2.65;;
17696;SDS011;8967;47.984;7.842;2023-07-29T10:02:50;2.65;;;2.33;;
17696;SDS011;8967;47.984;7.842;2023-07-29T10:05:19;5.20;;;2.53;;
17696;SDS011;8967;47.984;7.842;2023-07-29T10:07:47;2.80;;;2.25;;
17696;SDS011;8967;47.984;7.842;2023-07-29T10:10:15;2.92;;;2.50;;
17696;SDS011;8967;47.984;7.842;2023-07-29T10:12:43;7.38;;;5.85;;
17696;SDS011;8967;47.984;7.842;2023-07-29T10:15:10;5.07;;;4.38;;
17696;SDS011;8967;47.984;7.842;2023-07-29T10:17:38;4.28;;;3.15;;
17696;SDS011;8967;47.984;7.842;2023-07-29T10:20:07;3.30;;;3.00;;
17696;SDS011;8967;47.984;7.842;2023-07-29T10:22:38;2.85;;;2.60;;
17696;SDS011;8967;47.984;7.842;2023-07-29T10:25:07;7.15;;;2.47;;
17696;SDS011;8967;47.984;7.842;2023-07-29T10:27:43;2.38;;;2.17;;
17696;SDS011;8967;47.984;7.842;2023-07-29T10:30:13;4.43;;;2.40;;
17696;SDS011;8967;47.984;7.842;2023-07-29T10:32:43;2.63;;;2.42;;
17696;SDS011;8967;47.984;7.842;2023-07-29T10:35:13;2.90;;;2.47;;
17696;SDS011;8967;47.984;7.842;2023-07-29T10:37:41;9.30;;;6.25;;
17696;SDS011;8967;47.984;7.842;2023-07-29T10:40:10;8.63;;;6.43;;
17696;SDS011;8967;47.984;7.842;2023-07-29T10:42:38;3.53;;;3.13;;
17696;SDS011;8967;47.984;7.842;2023-07-29T10:45:25;2.47;;;2.28;;
17696;SDS011;8967;47.984;7.842;2023-07-29T10:47:53;2.88;;;2.25;;
17696;SDS011;8967;47.984;7.842;2023-07-29T10:50:21;3.42;;;2.55;;
17696;SDS011;8967;47.984;7.842;2023-07-29T10:52:49;2.80;;;2.55;;
17696;SDS011;8967;47.984;7.842;2023-07-29T10:55:27;3.15;;;2.20;;
17696;SDS011;8967;47.984;7.842;2023-07-29T10:58:04;3.88;;;2.63;;
17696;SDS011;8967;47.984;7.842;2023-07-29T11:00:32;2.50;;;2.30;;
17696;SDS011;8967;47.984;7.842;2023-07-29T11:03:01;3.70;;;2.35;;
17696;SDS011;8967;47.984;7.842;2023-07-29T11:05:42;3.60;;;2.42;;
17696;SDS011;8967;47.984;7.842;2023-07-29T11:11:03;4.20;;;2.30;;
17696;SDS011;8967;47.984;7.842;2023-07-29T11:13:32;4.00;;;2.40;;
17696;SDS011;8967;47.984;7.842;2023-07-29T11:16:03;2.50;;;2.20;;
17696;SDS011;8967;47.984;7.842;2023-07-29T11:18:32;5.50;;;2.95;;
17696;SDS011;8967;47.984;7.842;2023-07-29T11:21:00;3.22;;;2.40;;
17696;SDS011;8967;47.984;7.842;2023-07-29T11:23:29;2.90;;;2.17;;
17696;SDS011;8967;47.984;7.842;2023-07-29T11:25:57;3.47;;;2.40;;
17696;SDS011;8967;47.984;7.842;2023-07-29T11:28:24;3.35;;;1.92;;
17696;SDS011;8967;47.984;7.842;2023-07-29T11:30:51;1.95;;;1.85;;
17696;SDS011;8967;47.984;7.842;2023-07-29T11:33:19;3.60;;;2.50;;
17696;SDS011;8967;47.984;7.842;2023-07-29T11:35:48;5.18;;;2.30;;
17696;SDS011;8967;47.984;7.842;2023-07-29T11:38:16;2.65;;;1.90;;
17696;SDS011;8967;47.984;7.842;2023-07-29T11:40:53;2.30;;;2.10;;
17696;SDS011;8967;47.984;7.842;2023-07-29T11:43:20;3.38;;;1.88;;
17696;SDS011;8967;47.984;7.842;2023-07-29T11:45:47;2.15;;;2.00;;
17696;SDS011;8967;47.984;7.842;2023-07-29T11:48:14;3.25;;;1.73;;
17696;SDS011;8967;47.984;7.842;2023-07-29T11:50:41;2.08;;;1.88;;
17696;SDS011;8967;47.984;7.842;2023-07-29T11:53:09;2.20;;;1.85;;
17696;SDS011;8967;47.984;7.842;2023-07-29T11:55:37;2.42;;;1.88;;
17696;SDS011;8967;47.984;7.842;2023-07-29T11:58:07;3.35;;;2.20;;
17696;SDS011;8967;47.984;7.842;2023-07-29T12:00:34;3.75;;;1.98;;
17696;SDS011;8967;47.984;7.842;2023-07-29T12:03:00;1.88;;;1.77;;
17696;SDS011;8967;47.984;7.842;2023-07-29T12:05:28;1.98;;;1.88;;
17696;SDS011;8967;47.984;7.842;2023-07-29T12:07:56;1.98;;;1.88;;
17696;SDS011;8967;47.984;7.842;2023-07-29T12:10:25;2.88;;;1.90;;
17696;SDS011;8967;47.984;7.842;2023-07-29T12:12:52;2.35;;;2.15;;
17696;SDS011;8967;47.984;7.842;2023-07-29T12:15:22;2.30;;;2.10;;
17696;SDS011;8967;47.984;7.842;2023-07-29T12:17:53;2.80;;;2.22;;
17696;SDS011;8967;47.984;7.842;2023-07-29T12:20:22;2.38;;;2.17;;
17696;SDS011;8967;47.984;7.842;2023-07-29T12:22:52;2.33;;;2.13;;
17696;SDS011;8967;47.984;7.842;2023-07-29T12:25:20;2.63;;;2.10;;
17696;SDS011;8967;47.984;7.842;2023-07-29T12:27:49;2.08;;;1.70;;
17696;SDS011;8967;47.984;7.842;2023-07-29T12:30:16;1.95;;;1.70;;
17696;SDS011;8967;47.984;7.842;2023-07-29T12:32:46;2.97;;;2.10;;
17696;SDS011;8967;47.984;7.842;2023-07-29T12:35:13;2.65;;;2.03;;
17696;SDS011;8967;47.984;7.842;2023-07-29T12:37:41;2.70;;;2.40;;
17696;SDS011;8967;47.984;7.842;2023-07-29T12:40:22;2.38;;;2.17;;
17696;SDS011;8967;47.984;7.842;2023-07-29T12:42:57;2.53;;;1.98;;
17696;SDS011;8967;47.984;7.842;2023-07-29T12:45:24;2.88;;;2.15;;
17696;SDS011;8967;47.984;7.842;2023-07-29T12:47:52;2.25;;;2.05;;
17696;SDS011;8967;47.984;7.842;2023-07-29T12:50:19;2.17;;;1.98;;
17696;SDS011;8967;47.984;7.842;2023-07-29T12:52:46;2.53;;;1.73;;
17696;SDS011;8967;47.984;7.842;2023-07-29T12:55:13;2.17;;;1.88;;
17696;SDS011;8967;47.984;7.842;2023-07-29T12:57:40;1.70;;;1.60;;
17696;SDS011;8967;47.984;7.842;2023-07-29T13:00:10;1.90;;;1.80;;
17696;SDS011;8967;47.984;7.842;2023-07-29T13:02:38;1.70;;;1.60;;
17696;SDS011;8967;47.984;7.842;2023-07-29T13:05:05;3.42;;;1.92;;
17696;SDS011;8967;47.984;7.842;2023-07-29T13:07:35;1.90;;;1.75;;
17696;SDS011;8967;47.984;7.842;2023-07-29T13:10:02;2.20;;;2.00;;
17696;SDS011;8967;47.984;7.842;2023-07-29T13:12:31;2.40;;;2.20;;
17696;SDS011;8967;47.984;7.842;2023-07-29T13:14:58;2.70;;;2.25;;
17696;SDS011;8967;47.984;7.842;2023-07-29T13:17:29;2.80;;;1.80;;
17696;SDS011;8967;47.984;7.842;2023-07-29T13:19:56;2.00;;;1.80;;
17696;SDS011;8967;47.984;7.842;2023-07-29T13:22:25;1.98;;;1.77;;
17696;SDS011;8967;47.984;7.842;2023-07-29T13:24:52;2.08;;;1.90;;
17696;SDS011;8967;47.984;7.842;2023-07-29T13:27:19;2.20;;;2.03;;
17696;SDS011;8967;47.984;7.842;2023-07-29T13:29:46;4.15;;;2.10;;
17696;SDS011;8967;47.984;7.842;2023-07-29T13:32:15;2.03;;;1.92;;
17696;SDS011;8967;47.984;7.842;2023-07-29T13:34:43;1.80;;;1.70;;
17696;SDS011;8967;47.984;7.842;2023-07-29T13:37:10;1.80;;;1.70;;
17696;SDS011;8967;47.984;7.842;2023-07-29T13:39:39;2.05;;;1.95;;
17696;SDS011;8967;47.984;7.842;2023-07-29T13:42:06;2.35;;;1.92;;
17696;SDS011;8967;47.984;7.842;2023-07-29T13:44:33;2.60;;;2.38;;
17696;SDS011;8967;47.984;7.842;2023-07-29T13:47:00;2.63;;;2.42;;
17696;SDS011;8967;47.984;7.842;2023-07-29T13:49:27;4.18;;;2.13;;
17696;SDS011;8967;47.984;7.842;2023-07-29T13:51:55;2.13;;;1.92;;
17696;SDS011;8967;47.984;7.842;2023-07-29T13:54:22;2.42;;;1.98;;
17696;SDS011;8967;47.984;7.842;2023-07-29T13:56:52;2.30;;;2.10;;
17696;SDS011;8967;47.984;7.842;2023-07-29T13:59:19;2.28;;;2.15;;
17696;SDS011;8967;47.984;7.842;2023-07-29T14:01:46;3.30;;;2.22;;
17696;SDS011;8967;47.984;7.842;2023-07-29T14:04:13;2.22;;;2.03;;
17696;SDS011;8967;47.984;7.842;2023-07-29T14:06:40;2.40;;;2.20;;
17696;SDS011;8967;47.984;7.842;2023-07-29T14:09:11;4.47;;;2.85;;
17696;SDS011;8967;47.984;7.842;2023-07-29T14:11:38;2.38;;;2.17;;
17696;SDS011;8967;47.984;7.842;2023-07-29T14:14:05;3.83;;;2.20;;
17696;SDS011;8967;47.984;7.842;2023-07-29T14:16:33;5.68;;;2.20;;
17696;SDS011;8967;47.984;7.842;2023-07-29T14:19:00;1.90;;;1.80;;
17696;SDS011;8967;47.984;7.842;2023-07-29T14:21:26;4.13;;;2.03;;
17696;SDS011;8967;47.984;7.842;2023-07-29T14:23:53;2.38;;;2.13;;
17696;SDS011;8967;47.984;7.842;2023-07-29T14:26:24;3.47;;;2.60;;
17696;SDS011;8967;47.984;7.842;2023-07-29T14:28:51;3.53;;;2.42;;
17696;SDS011;8967;47.984;7.842;2023-07-29T14:31:18;7.45;;;2.90;;
17696;SDS011;8967;47.984;7.842;2023-07-29T14:33:45;4.75;;;3.03;;
17696;SDS011;8967;47.984;7.842;2023-07-29T14:36:12;6.40;;;2.83;;
17696;SDS011;8967;47.984;7.842;2023-07-29T14:38:39;5.13;;;2.78;;
17696;SDS011;8967;47.984;7.842;2023-07-29T14:41:05;7.00;;;2.80;;
17696;SDS011;8967;47.984;7.842;2023-07-29T14:43:34;4.30;;;2.97;;
17696;SDS011;8967;47.984;7.842;2023-07-29T14:46:01;5.45;;;3.22;;
17696;SDS011;8967;47.984;7.842;2023-07-29T14:48:28;5.53;;;3.15;;
17696;SDS011;8967;47.984;7.842;2023-07-29T14:50:55;6.45;;;2.78;;
17696;SDS011;8967;47.984;7.842;2023-07-29T14:53:22;5.07;;;2.90;;
17696;SDS011;8967;47.984;7.842;2023-07-29T14:55:50;6.90;;;3.30;;
17696;SDS011;8967;47.984;7.842;2023-07-29T14:58:17;4.22;;;3.03;;
17696;SDS011;8967;47.984;7.842;2023-07-29T15:00:45;4.15;;;3.03;;
17696;SDS011;8967;47.984;7.842;2023-07-29T15:03:12;6.63;;;2.88;;
17696;SDS011;8967;47.984;7.842;2023-07-29T15:05:39;4.88;;;3.05;;
17696;SDS011;8967;47.984;7.842;2023-07-29T15:08:06;5.05;;;3.42;;
17696;SDS011;8967;47.984;7.842;2023-07-29T15:10:33;4.63;;;3.05;;